Time;durP1;ratioP1;P1;durP2;ratioP2;P2;SDS_P1;SDS_P2;PMS_P1;PMS_P2;Temp;Humidity;BMP_temperature;BMP_pressure;BME280_temperature;BME280_humidity;BME280_pressure;Samples;Min_cycle;Max_cycle;Signal;HPM_P1;HPM_P2
2023/07/25 00:50:18;;;;;;;5.80;1.70;;;14.60;99.90;;;;;;5091082;28;20223;-46
2023/07/25 00:52:43;;;;;;;7.33;1.97;;;14.70;99.90;;;;;;5095638;28;20532;-46
2023/07/25 00:55:50;;;;;;;6.33;2.03;;;14.70;99.90;;;;;;5076523;28;20240;-45
2023/07/25 01:05:04;;;;;;;7.63;2.53;;;14.70;99.90;;;;;;5094005;28;20177;-42
2023/07/25 01:07:35;;;;;;;10.17;2.17;;;14.70;99.90;;;;;;5079882;28;20183;-40
2023/07/25 01:10:00;;;;;;;6.87;2.33;;;14.70;99.90;;;;;;5080693;28;20554;-46
2023/07/25 01:12:26;;;;;;;10.73;2.63;;;14.60;99.90;;;;;;5080360;28;20186;-45
2023/07/25 01:14:58;;;;;;;4.83;2.40;;;14.70;99.90;;;;;;5098478;28;20217;-40
2023/07/25 01:17:25;;;;;;;9.73;2.17;;;14.70;99.90;;;;;;5098441;28;20178;-45
2023/07/25 01:19:52;;;;;;;4.77;2.17;;;14.60;99.90;;;;;;5099117;28;20551;-40
2023/07/25 01:22:20;;;;;;;7.13;2.00;;;14.60;99.90;;;;;;5098376;28;20171;-45
2023/07/25 01:24:47;;;;;;;8.23;2.87;;;14.60;99.90;;;;;;5098718;28;20250;-46
2023/07/25 01:27:15;;;;;;;10.80;2.20;;;14.60;99.90;;;;;;5080252;28;20617;-46
2023/07/25 01:29:45;;;;;;;8.57;2.63;;;14.60;99.90;;;;;;5098291;28;20187;-42
2023/07/25 01:32:17;;;;;;;6.07;2.27;;;14.50;99.90;;;;;;5080041;28;20221;-42
2023/07/25 01:34:43;;;;;;;9.47;2.63;;;14.50;99.90;;;;;;5097899;28;20194;-45
2023/07/25 01:37:12;;;;;;;11.03;2.80;;;14.50;99.90;;;;;;5098006;28;20207;-41
2023/07/25 01:39:37;;;;;;;10.30;2.30;;;14.50;99.90;;;;;;5079934;28;20419;-46
2023/07/25 01:42:03;;;;;;;10.10;2.77;;;14.50;99.90;;;;;;5079774;28;20303;-46
2023/07/25 01:44:29;;;;;;;9.87;2.13;;;14.50;99.90;;;;;;5098415;28;20189;-41
2023/07/25 01:46:58;;;;;;;7.07;1.97;;;14.50;99.90;;;;;;5063012;28;20238;-47
2023/07/25 01:49:37;;;;;;;5.97;2.23;;;14.50;99.90;;;;;;5097790;28;20232;-41
2023/07/25 01:52:02;;;;;;;10.73;2.40;;;14.50;99.90;;;;;;5079581;28;20209;-45
2023/07/25 01:54:28;;;;;;;6.90;2.13;;;14.50;99.90;;;;;;5097750;28;20288;-42
2023/07/25 01:56:55;;;;;;;3.73;2.40;;;14.50;99.90;;;;;;5097911;28;20214;-41
2023/07/25 01:59:27;;;;;;;5.73;2.13;;;14.50;99.90;;;;;;5098283;28;20217;-42
2023/07/25 02:01:52;;;;;;;10.20;2.63;;;14.50;99.90;;;;;;5079652;28;20246;-44
2023/07/25 02:04:18;;;;;;;8.70;2.93;;;14.50;99.90;;;;;;5098343;28;20210;-46
2023/07/25 02:06:44;;;;;;;6.07;2.50;;;14.50;99.90;;;;;;5097678;28;20213;-41
2023/07/25 02:09:16;;;;;;;10.27;2.43;;;14.50;99.90;;;;;;5097985;28;20233;-42
2023/07/25 02:11:42;;;;;;;5.43;2.10;;;14.50;99.90;;;;;;5097612;28;20179;-46
2023/07/25 02:14:08;;;;;;;6.87;2.37;;;14.50;99.90;;;;;;5097608;28;20232;-45
2023/07/25 02:16:36;;;;;;;5.13;2.30;;;14.50;99.90;;;;;;5078569;28;20238;-42
2023/07/25 02:19:09;;;;;;;5.60;2.17;;;14.50;99.90;;;;;;5097741;28;20175;-42
2023/07/25 02:21:35;;;;;;;6.30;2.40;;;14.50;99.90;;;;;;5063418;28;20218;-46
2023/07/25 08:57:42;;;;;;;4.87;1.30;;;17.20;99.90;;;;;;5134835;28;20165;-48
2023/07/25 09:00:08;;;;;;;5.13;1.57;;;17.20;99.90;;;;;;5132768;28;20186;-48
2023/07/25 09:02:34;;;;;;;5.27;1.57;;;17.20;99.90;;;;;;5134563;28;20247;-48
2023/07/25 09:05:01;;;;;;;8.10;1.37;;;17.20;99.90;;;;;;5134387;28;20185;-47
2023/07/25 09:07:27;;;;;;;8.90;1.93;;;17.20;99.90;;;;;;5132739;28;20532;-48
2023/07/25 09:09:53;;;;;;;3.43;1.40;;;17.20;99.90;;;;;;5115191;28;20211;-48
2023/07/25 09:12:18;;;;;;;5.97;1.27;;;17.30;99.90;;;;;;5134051;28;20185;-47
2023/07/25 09:14:44;;;;;;;5.43;1.53;;;17.30;99.90;;;;;;5133967;28;20660;-48
2023/07/25 09:17:10;;;;;;;5.10;1.33;;;17.40;99.90;;;;;;5133758;28;20676;-47
2023/07/25 09:19:35;;;;;;;2.60;1.17;;;17.50;99.90;;;;;;5133835;28;20188;-49
2023/07/25 09:22:01;;;;;;;3.47;1.00;;;17.50;99.90;;;;;;5134338;28;20601;-49
2023/07/25 09:24:36;;;;;;;7.73;1.77;;;17.60;99.90;;;;;;5133821;28;20576;-48
2023/07/25 09:27:01;;;;;;;5.27;1.20;;;17.70;99.90;;;;;;5134776;27;20213;-48
2023/07/25 09:29:30;;;;;;;5.07;1.10;;;17.70;99.90;;;;;;5137963;27;20186;-48
2023/07/25 09:31:56;;;;;;;2.63;1.03;;;17.60;99.90;;;;;;5137605;27;20208;-49
2023/07/25 09:34:25;;;;;;;10.00;1.70;;;17.60;99.90;;;;;;5137482;27;20204;-48
2023/07/25 09:36:51;;;;;;;4.73;1.27;;;17.70;99.90;;;;;;5137471;27;20198;-48
2023/07/25 09:39:17;;;;;;;5.87;1.20;;;17.90;99.90;;;;;;5138216;27;20169;-48
2023/07/25 09:41:45;;;;;;;4.37;1.20;;;18.00;99.90;;;;;;5137426;27;20231;-48
2023/07/25 09:44:11;;;;;;;4.60;1.37;;;18.10;99.90;;;;;;5137361;27;20660;-47
2023/07/25 09:46:37;;;;;;;6.80;1.87;;;18.00;99.90;;;;;;5137306;27;20589;-49
2023/07/25 09:55:51;;;;;;;3.50;1.30;;;18.00;99.90;;;;;;5136357;27;20186;-47
2023/07/25 09:58:18;;;;;;;6.07;1.17;;;18.10;99.90;;;;;;5137186;27;20235;-48
2023/07/25 12:43:59;;;;;;;3.43;1.53;;;18.50;99.90;;;;;;5115180;27;20311;-47
2023/07/25 15:28:14;;;;;;;4.57;1.80;;;20.20;99.90;;;;;;5097991;27;20233;-41
2023/07/25 15:31:24;;;;;;;3.20;1.30;;;20.30;99.90;;;;;;5096932;28;20217;-42
2023/07/25 15:34:39;;;;;;;3.53;1.83;;;20.20;99.90;;;;;;5083684;28;20209;-43
2023/07/25 15:37:06;;;;;;;4.83;1.77;;;20.20;99.90;;;;;;5113285;28;20210;-47
2023/07/25 15:39:32;;;;;;;7.90;1.97;;;20.30;99.90;;;;;;5115154;28;20182;-48
2023/07/25 15:41:58;;;;;;;6.67;1.83;;;20.50;99.90;;;;;;5115044;28;20600;-48
2023/07/25 15:44:24;;;;;;;4.47;2.10;;;20.60;99.90;;;;;;5096674;28;20193;-48
2023/07/25 15:46:50;;;;;;;5.63;1.70;;;20.60;99.90;;;;;;5114808;28;20204;-48
2023/07/25 15:49:16;;;;;;;5.97;1.80;;;20.70;99.90;;;;;;5093320;28;20183;-47
2023/07/25 15:51:42;;;;;;;7.93;2.03;;;20.80;99.90;;;;;;5112948;28;20695;-49
2023/07/25 15:54:08;;;;;;;4.40;1.50;;;20.90;99.90;;;;;;5096601;28;20178;-47
2023/07/25 15:56:33;;;;;;;6.13;1.50;;;20.80;99.90;;;;;;5114923;28;20198;-47
2023/07/25 15:58:59;;;;;;;4.43;1.87;;;20.80;99.90;;;;;;5096548;28;20218;-48
2023/07/25 16:01:25;;;;;;;4.23;1.83;;;20.90;99.90;;;;;;5115172;28;20181;-48
2023/07/25 16:03:50;;;;;;;5.63;1.80;;;21.00;99.90;;;;;;5114602;28;20187;-48
2023/07/25 16:06:16;;;;;;;5.47;1.50;;;21.00;99.90;;;;;;5114444;28;20209;-49
2023/07/25 16:08:42;;;;;;;6.20;1.70;;;21.10;99.90;;;;;;5096258;28;20554;-49
2023/07/25 16:11:07;;;;;;;5.00;1.80;;;21.30;99.90;;;;;;5114329;28;20202;-48
2023/07/25 16:13:40;;;;;;;3.10;1.43;;;21.30;99.90;;;;;;5114364;28;20183;-48
2023/07/25 16:16:05;;;;;;;4.10;1.60;;;21.40;99.90;;;;;;5114227;28;20673;-48
2023/07/25 16:18:32;;;;;;;6.00;1.60;;;21.50;99.90;;;;;;5114276;28;20182;-50
2023/07/25 16:20:57;;;;;;;5.10;1.50;;;21.50;99.90;;;;;;5114262;28;20591;-48
2023/07/25 16:23:23;;;;;;;6.83;1.80;;;21.30;99.90;;;;;;5114272;28;20240;-47
2023/07/25 16:25:55;;;;;;;3.97;1.60;;;21.30;99.90;;;;;;5114139;28;20205;-48
2023/07/25 16:28:20;;;;;;;5.00;1.40;;;21.20;99.90;;;;;;5095943;28;20202;-48
2023/07/25 16:30:46;;;;;;;3.87;1.73;;;21.10;99.90;;;;;;5114290;28;20224;-49
2023/07/25 16:33:12;;;;;;;2.87;1.30;;;21.00;99.90;;;;;;5114222;28;20202;-48
2023/07/25 16:35:39;;;;;;;4.70;1.20;;;20.90;99.90;;;;;;5113715;28;20244;-48
2023/07/25 16:38:05;;;;;;;1.87;1.37;;;20.90;99.90;;;;;;5114071;28;20267;-50
2023/07/25 16:40:31;;;;;;;3.20;1.10;;;20.80;99.90;;;;;;5096443;28;20271;-49
2023/07/25 16:42:56;;;;;;;3.70;1.37;;;20.90;99.90;;;;;;5114367;28;20600;-48
2023/07/25 16:45:22;;;;;;;3.77;1.57;;;20.90;99.90;;;;;;5114000;28;20204;-48
2023/07/25 16:47:48;;;;;;;7.90;1.30;;;21.00;99.90;;;;;;5113979;28;20265;-48
2023/07/25 16:50:14;;;;;;;3.67;1.10;;;20.90;99.90;;;;;;5113887;28;20217;-46
2023/07/25 16:52:39;;;;;;;3.50;1.20;;;20.90;99.90;;;;;;5113930;28;20601;-48
2023/07/25 16:55:06;;;;;;;4.17;1.10;;;20.80;99.90;;;;;;5114222;28;20178;-48
2023/07/25 16:57:31;;;;;;;4.33;1.10;;;20.80;99.90;;;;;;5114091;28;20235;-47
2023/07/25 16:59:57;;;;;;;1.00;0.90;;;20.70;99.90;;;;;;5095667;28;20182;-49
2023/07/25 17:02:23;;;;;;;3.77;1.23;;;20.70;99.90;;;;;;5113833;28;20608;-48
2023/07/25 17:04:57;;;;;;;3.20;1.00;;;20.60;99.90;;;;;;5095741;28;20220;-47
2023/07/25 17:08:11;;;;;;;4.30;1.00;;;20.50;99.90;;;;;;5113999;28;20239;-40
2023/07/25 17:14:38;;;;;;;1.90;0.90;;;20.30;99.90;;;;;;5114106;28;20239;-42
2023/07/25 17:17:12;;;;;;;2.97;0.80;;;20.20;99.90;;;;;;5025091;28;20758;-41
2023/07/25 17:20:05;;;;;;;1.63;0.83;;;20.10;99.90;;;;;;5095693;28;20190;-42
2023/07/25 17:23:00;;;;;;;3.37;0.80;;;20.00;99.90;;;;;;5079246;28;20186;-41
2023/07/25 17:25:40;;;;;;;2.90;0.60;;;19.90;99.90;;;;;;5094164;28;20370;-41
2023/07/25 17:28:37;;;;;;;3.13;1.00;;;19.70;99.90;;;;;;5092079;28;20195;-41
2023/07/25 17:31:32;;;;;;;5.13;0.90;;;19.70;99.90;;;;;;5078990;28;20674;-41
2023/07/25 17:34:30;;;;;;;;;;;;;;;;;;;;;
2023/07/25 17:37:00;;;;;;;3.33;1.10;;;19.70;99.90;;;;;;5091542;28;20243;-40
2023/07/25 17:39:33;;;;;;;3.13;0.87;;;19.80;99.90;;;;;;5075141;28;20187;-40
2023/07/25 17:42:00;;;;;;;1.97;0.90;;;19.90;99.90;;;;;;5093191;28;20262;-40
2023/07/25 17:44:30;;;;;;;2.77;0.80;;;19.90;99.90;;;;;;5093236;28;20190;-40
2023/07/25 17:47:02;;;;;;;4.03;0.90;;;19.90;99.90;;;;;;5093123;28;20227;-42
2023/07/25 17:49:57;;;;;;;2.70;0.83;;;19.80;99.90;;;;;;5095498;28;20643;-39
2023/07/25 17:52:27;;;;;;;2.70;0.83;;;19.70;99.90;;;;;;5095518;28;20199;-42
2023/07/25 17:55:09;;;;;;;3.03;0.80;;;19.60;99.90;;;;;;5078853;28;20221;-40
2023/07/25 17:57:52;;;;;;;2.40;0.70;;;19.50;99.90;;;;;;5062259;28;20296;-40
2023/07/25 18:07:38;;;;;;;1.10;0.67;;;19.30;99.90;;;;;;5095771;28;20194;-40
2023/07/25 18:10:31;;;;;;;0.87;0.63;;;19.20;99.90;;;;;;5078035;28;20195;-41
2023/07/25 18:13:44;;;;;;;1.10;0.63;;;19.20;99.90;;;;;;5062288;28;20222;-39
2023/07/25 18:19:10;;;;;;;3.93;0.70;;;19.10;99.90;;;;;;5096287;28;20171;-39
2023/07/25 18:21:41;;;;;;;0.97;0.50;;;19.10;99.90;;;;;;5077859;28;20190;-41
2023/07/25 18:24:08;;;;;;;5.47;0.80;;;19.00;99.90;;;;;;5077829;28;20202;-40
2023/07/25 18:26:42;;;;;;;1.73;0.77;;;18.90;99.90;;;;;;5094126;28;20712;-43
2023/07/25 18:29:10;;;;;;;2.33;0.90;;;18.80;99.90;;;;;;5107899;28;20258;-40
2023/07/25 18:31:38;;;;;;;3.63;0.90;;;18.70;99.90;;;;;;5116748;28;20661;-40
2023/07/25 18:44:40;;;;;;;3.63;0.70;;;18.30;99.90;;;;;;5117128;28;20174;-40
2023/07/25 18:47:06;;;;;;;1.40;0.70;;;18.10;99.90;;;;;;5115234;28;20571;-42
2023/07/25 18:49:32;;;;;;;3.03;1.20;;;18.10;99.90;;;;;;5097699;28;20348;-41
2023/07/25 18:51:59;;;;;;;5.30;0.80;;;18.00;99.90;;;;;;5115925;28;20206;-40
2023/07/25 18:54:26;;;;;;;1.73;0.80;;;18.00;99.90;;;;;;5097564;28;20209;-42
2023/07/25 18:56:52;;;;;;;4.47;0.83;;;17.90;99.90;;;;;;5116504;28;20234;-42
2023/07/25 18:59:17;;;;;;;0.93;0.50;;;17.80;99.90;;;;;;5094536;28;20186;-46
2023/07/25 19:02:11;;;;;;;2.17;0.70;;;17.80;99.90;;;;;;5115338;28;20641;-46
2023/07/25 19:04:55;;;;;;;0.93;0.47;;;17.70;99.90;;;;;;5113618;28;20189;-41
2023/07/25 19:07:21;;;;;;;3.20;0.60;;;17.70;99.90;;;;;;5116023;28;20178;-41
2023/07/25 19:09:47;;;;;;;0.70;0.70;;;17.60;99.90;;;;;;5127874;28;20576;-42
2023/07/25 19:12:13;;;;;;;2.73;0.70;;;17.50;99.90;;;;;;5114721;28;20214;-40
2023/07/25 19:14:40;;;;;;;1.43;0.63;;;17.40;99.90;;;;;;5104375;28;20194;-39
2023/07/25 19:17:07;;;;;;;1.83;0.73;;;17.30;99.90;;;;;;5097114;28;20210;-42
2023/07/25 19:19:33;;;;;;;1.90;0.73;;;17.30;99.90;;;;;;5097156;28;20209;-39
2023/07/25 19:21:59;;;;;;;4.40;1.10;;;17.20;99.90;;;;;;5115462;28;20650;-40
2023/07/25 19:24:25;;;;;;;1.23;0.73;;;17.10;99.90;;;;;;5097133;28;20194;-40
2023/07/25 19:26:52;;;;;;;1.93;0.73;;;17.10;99.90;;;;;;5096879;28;20210;-40
2023/07/25 19:29:18;;;;;;;1.83;0.67;;;16.90;99.90;;;;;;5115169;28;20206;-41
2023/07/25 19:31:44;;;;;;;2.33;0.77;;;16.90;99.90;;;;;;5097012;28;20214;-40
2023/07/25 19:34:10;;;;;;;2.80;0.80;;;16.80;99.90;;;;;;5096887;28;20612;-41
2023/07/25 19:36:36;;;;;;;1.10;0.80;;;16.70;99.90;;;;;;5094341;28;20616;-40
2023/07/25 19:39:02;;;;;;;2.27;0.80;;;16.70;99.90;;;;;;5115095;28;20186;-41
2023/07/25 19:41:28;;;;;;;2.47;0.63;;;16.60;99.90;;;;;;5096854;28;20239;-40
2023/07/25 19:43:54;;;;;;;4.53;0.80;;;16.60;99.90;;;;;;5114940;28;20561;-39
2023/07/25 19:46:20;;;;;;;1.13;0.63;;;16.50;99.90;;;;;;5114858;28;20235;-42
2023/07/25 19:48:46;;;;;;;2.70;0.90;;;16.40;99.90;;;;;;5096789;28;20193;-40
2023/07/25 19:51:13;;;;;;;4.00;0.80;;;16.40;99.90;;;;;;5096630;28;20591;-38
2023/07/25 19:53:39;;;;;;;1.33;0.80;;;16.30;99.90;;;;;;5114747;28;20178;-40
2023/07/25 19:56:06;;;;;;;2.00;1.03;;;16.20;99.90;;;;;;5096727;28;20669;-40
2023/07/25 19:58:32;;;;;;;1.97;0.83;;;16.10;99.90;;;;;;5096751;28;20186;-38
2023/07/25 20:00:58;;;;;;;4.43;1.00;;;16.10;99.90;;;;;;5114752;28;20207;-43
2023/07/25 20:03:24;;;;;;;2.63;1.27;;;16.00;99.90;;;;;;5096214;28;20201;-42
2023/07/25 20:05:50;;;;;;;2.10;1.00;;;15.90;99.90;;;;;;5114469;28;20681;-40
2023/07/25 20:50:16;;;;;;;1.93;0.90;;;14.90;99.90;;;;;;5105878;28;20262;-40
2023/07/25 20:52:42;;;;;;;2.13;1.10;;;14.90;99.90;;;;;;5095562;28;20619;-45
2023/07/25 20:55:08;;;;;;;2.53;1.13;;;14.80;99.90;;;;;;5113847;28;20183;-46
2023/07/25 20:57:34;;;;;;;3.80;1.03;;;14.80;99.90;;;;;;5113794;28;20241;-45
2023/07/25 20:59:59;;;;;;;3.17;0.70;;;14.80;99.90;;;;;;5113833;28;20649;-46
2023/07/25 21:02:25;;;;;;;1.93;0.90;;;14.70;99.90;;;;;;5113709;28;20182;-45
2023/07/25 21:04:51;;;;;;;1.93;0.97;;;14.70;99.90;;;;;;5095494;28;20190;-40
2023/07/25 21:07:17;;;;;;;0.80;0.73;;;14.70;99.90;;;;;;5113648;28;20206;-42
2023/07/25 21:09:43;;;;;;;1.67;0.90;;;14.60;99.90;;;;;;5114061;28;20197;-39
2023/07/25 21:12:09;;;;;;;1.10;0.77;;;14.50;99.90;;;;;;5095264;28;20210;-42
2023/07/25 21:14:36;;;;;;;0.77;0.77;;;14.50;99.90;;;;;;5095528;28;20202;-40
2023/07/25 21:17:02;;;;;;;1.20;0.80;;;14.40;99.90;;;;;;5095441;28;20293;-41
2023/07/25 21:19:28;;;;;;;1.43;0.90;;;14.40;99.90;;;;;;5096232;28;20201;-41
2023/07/25 21:21:54;;;;;;;1.10;0.90;;;14.30;99.90;;;;;;5096114;28;20190;-40
2023/07/25 21:24:20;;;;;;;1.50;0.80;;;14.30;99.90;;;;;;5099363;28;20190;-41
2023/07/25 21:26:46;;;;;;;1.67;1.10;;;14.20;99.90;;;;;;5099398;28;20213;-40
2023/07/25 21:29:12;;;;;;;2.37;0.80;;;14.20;99.90;;;;;;5099390;28;20197;-42
2023/07/25 21:31:37;;;;;;;6.27;1.00;;;14.20;99.90;;;;;;5099726;28;20282;-41
2023/07/25 21:34:04;;;;;;;3.77;1.00;;;14.10;99.90;;;;;;5099315;28;20677;-41
2023/07/25 21:36:31;;;;;;;2.60;1.00;;;14.10;99.90;;;;;;5117445;28;20202;-41
2023/07/25 21:39:30;;;;;;;3.17;1.63;;;14.10;99.90;;;;;;5099845;28;20309;-42
2023/07/25 21:49:02;;;;;;;1.93;1.10;;;13.90;99.90;;;;;;5074962;28;20704;-43
